createdAt,value
2023-05-24T00:01:44.128Z,7.64
2023-05-24T00:04:15.461Z,7.90
2023-05-24T00:06:45.099Z,7.91
2023-05-24T00:09:13.830Z,7.98
2023-05-24T00:11:42.428Z,8.27
2023-05-24T00:14:10.894Z,8.35
2023-05-24T00:16:39.445Z,8.42
2023-05-24T00:19:08.004Z,8.45
2023-05-24T00:21:38.134Z,8.42
2023-05-24T00:24:06.932Z,8.52
2023-05-24T00:26:35.507Z,8.69
2023-05-24T00:29:04.399Z,8.66
2023-05-24T00:31:33.283Z,8.38
2023-05-24T00:34:02.555Z,8.12
2023-05-24T00:36:31.390Z,7.80
2023-05-24T00:39:01.525Z,7.52
2023-05-24T00:41:30.081Z,7.85
2023-05-24T00:43:58.749Z,7.71
2023-05-24T00:46:30.215Z,7.62
2023-05-24T00:48:59.118Z,7.30
2023-05-24T00:51:28.700Z,7.10
2023-05-24T00:53:57.872Z,6.92
2023-05-24T00:56:28.152Z,6.83
2023-05-24T00:58:57.369Z,6.82
2023-05-24T01:01:26.928Z,6.74
2023-05-24T01:03:55.833Z,6.77
2023-05-24T01:06:25.106Z,6.77
2023-05-24T01:09:05.502Z,6.74
2023-05-24T01:11:48.075Z,6.69
2023-05-24T01:14:24.212Z,6.66
2023-05-24T01:16:58.218Z,6.76
2023-05-24T01:19:53.564Z,6.96
2023-05-24T01:22:39.999Z,7.20
2023-05-24T01:25:14.468Z,7.39
2023-05-24T01:27:44.975Z,7.37
2023-05-24T01:30:15.062Z,7.21
2023-05-24T01:32:44.093Z,7.21
2023-05-24T01:35:13.988Z,6.88
2023-05-24T01:37:42.616Z,6.71
2023-05-24T01:40:12.618Z,6.53
2023-05-24T01:43:04.676Z,6.29
2023-05-24T01:45:41.205Z,6.09
2023-05-24T01:48:19.479Z,5.93
2023-05-24T01:50:53.781Z,5.89
2023-05-24T01:53:26.467Z,5.84
2023-05-24T01:55:58.637Z,5.85
2023-05-24T01:58:29.964Z,5.88
2023-05-24T02:00:59.275Z,5.77
2023-05-24T02:03:28.059Z,5.72
2023-05-24T02:05:57.427Z,5.71
2023-05-24T02:08:26.105Z,5.76
2023-05-24T02:10:54.777Z,5.79
2023-05-24T02:13:23.490Z,5.72
2023-05-24T02:15:53.919Z,5.74
2023-05-24T02:18:22.850Z,5.74
2023-05-24T02:20:51.595Z,5.68
2023-05-24T02:23:20.305Z,5.65
2023-05-24T02:25:48.871Z,5.65
2023-05-24T02:28:17.526Z,5.86
2023-05-24T02:30:46.223Z,5.92
2023-05-24T02:33:16.314Z,5.95
2023-05-24T02:35:45.033Z,6.10
2023-05-24T02:38:13.792Z,6.22
2023-05-24T02:40:42.497Z,6.47
2023-05-24T02:43:11.305Z,6.67
2023-05-24T02:45:39.816Z,6.77
2023-05-24T02:48:08.475Z,6.96
2023-05-24T02:50:38.635Z,7.01
2023-05-24T02:53:07.161Z,7.01
2023-05-24T02:55:35.719Z,7.02
2023-05-24T02:58:04.468Z,7.14
2023-05-24T03:00:34.645Z,7.23
2023-05-24T03:03:03.915Z,7.39
2023-05-24T03:05:34.349Z,7.76
2023-05-24T03:08:04.683Z,7.86
2023-05-24T03:10:33.428Z,7.85
2023-05-24T03:13:02.149Z,7.93
2023-05-24T03:15:30.929Z,8.01
2023-05-24T03:17:59.764Z,8.24
2023-05-24T03:20:28.773Z,8.24
2023-05-24T03:22:57.500Z,8.55
2023-05-24T03:25:28.324Z,8.48
2023-05-24T03:27:56.909Z,8.72
2023-05-24T03:30:26.008Z,8.88
2023-05-24T03:32:56.909Z,9.09
2023-05-24T03:35:25.653Z,9.20
2023-05-24T03:37:54.578Z,9.09
2023-05-24T03:40:23.408Z,9.51
2023-05-24T03:42:57.652Z,9.37
2023-05-24T03:45:41.109Z,9.41
2023-05-24T03:48:09.847Z,9.65
2023-05-24T03:50:38.392Z,9.67
2023-05-24T03:53:07.192Z,9.78
2023-05-24T03:55:36.100Z,9.85
2023-05-24T03:58:06.250Z,10.08
2023-05-24T04:00:34.932Z,10.23
2023-05-24T04:03:07.016Z,10.31
2023-05-24T04:05:36.410Z,10.40
2023-05-24T04:08:06.625Z,10.59
2023-05-24T04:10:35.429Z,10.81
2023-05-24T04:13:05.631Z,10.88
2023-05-24T04:15:38.250Z,11.01
2023-05-24T04:18:07.619Z,11.15
2023-05-24T04:20:36.969Z,11.31
2023-05-24T04:23:05.761Z,11.36
2023-05-24T04:25:35.425Z,11.37
2023-05-24T04:28:08.731Z,11.51
2023-05-24T04:30:37.495Z,11.59
2023-05-24T04:33:06.197Z,11.72
2023-05-24T04:35:35.864Z,11.89
2023-05-24T04:38:04.598Z,12.04
2023-05-24T04:40:33.245Z,12.20
2023-05-24T04:43:02.002Z,12.29
2023-05-24T04:45:33.344Z,12.34
2023-05-24T04:48:02.011Z,12.48
2023-05-24T04:50:30.818Z,12.55
2023-05-24T04:52:59.415Z,12.68
2023-05-24T04:55:28.050Z,12.80
2023-05-24T04:57:57.445Z,12.91
2023-05-24T05:00:26.022Z,12.94
2023-05-24T05:02:56.412Z,13.01
2023-05-24T05:05:25.081Z,13.09
2023-05-24T05:07:53.786Z,13.12
2023-05-24T05:10:23.851Z,13.20
2023-05-24T05:12:52.704Z,13.38
2023-05-24T05:15:22.479Z,13.41
2023-05-24T05:17:51.413Z,13.63
2023-05-24T05:20:21.801Z,13.75
2023-05-24T05:22:51.146Z,13.77
2023-05-24T05:25:19.818Z,14.05
2023-05-24T05:27:48.545Z,14.19
2023-05-24T05:30:17.442Z,14.28
2023-05-24T05:32:46.247Z,14.25
2023-05-24T05:35:15.083Z,14.74
2023-05-24T05:37:45.162Z,14.77
2023-05-24T05:40:14.387Z,14.94
2023-05-24T05:42:47.604Z,14.76
2023-05-24T05:45:16.408Z,14.87
2023-05-24T05:47:45.388Z,15.10
2023-05-24T05:50:14.096Z,15.07
2023-05-24T05:52:42.630Z,15.15
2023-05-24T05:55:13.588Z,15.29
2023-05-24T05:57:42.464Z,15.53
2023-05-24T06:00:12.064Z,15.94
2023-05-24T06:02:40.815Z,16.02
2023-05-24T06:05:10.306Z,16.21
2023-05-24T06:07:39.184Z,16.26
2023-05-24T06:10:08.920Z,16.35
2023-05-24T06:12:40.760Z,16.36
2023-05-24T06:15:10.663Z,16.76
2023-05-24T06:17:39.373Z,16.67
2023-05-24T06:20:11.640Z,16.80
2023-05-24T06:22:40.275Z,16.92
2023-05-24T06:25:09.995Z,17.17
2023-05-24T06:27:40.262Z,17.03
2023-05-24T06:30:10.398Z,17.04
2023-05-24T06:32:39.144Z,16.98
2023-05-24T06:35:09.162Z,17.11
2023-05-24T06:37:38.813Z,17.13
2023-05-24T06:40:09.820Z,17.37
2023-05-24T06:42:41.006Z,17.56
2023-05-24T06:45:10.832Z,17.67
2023-05-24T06:47:39.674Z,17.91
2023-05-24T06:50:10.131Z,17.86
2023-05-24T06:52:38.773Z,18.03
2023-05-24T06:55:08.048Z,18.03
2023-05-24T06:57:36.807Z,18.21
2023-05-24T07:00:12.910Z,18.48
2023-05-24T07:02:41.977Z,18.59
2023-05-24T07:05:12.772Z,18.55
2023-05-24T07:07:41.130Z,18.90
2023-05-24T07:10:11.351Z,18.81
2023-05-24T07:12:40.380Z,19.11
2023-05-24T07:15:11.686Z,19.24
2023-05-24T07:17:40.475Z,19.44
2023-05-24T07:20:11.650Z,19.57
2023-05-24T07:22:40.348Z,19.63
2023-05-24T07:25:09.681Z,19.75
2023-05-24T07:27:38.410Z,19.92
2023-05-24T07:30:19.656Z,20.05
2023-05-24T07:32:58.936Z,20.12
2023-05-24T07:35:28.906Z,20.27
2023-05-24T07:37:57.551Z,20.26
2023-05-24T07:40:27.352Z,20.58
2023-05-24T07:42:56.466Z,20.61
2023-05-24T07:45:25.307Z,20.65
2023-05-24T07:47:56.582Z,20.47
2023-05-24T07:50:28.300Z,20.70
2023-05-24T07:52:58.632Z,20.56
2023-05-24T07:55:28.278Z,20.51
2023-05-24T07:57:56.856Z,20.57
2023-05-24T08:00:25.811Z,20.33
2023-05-24T08:02:54.552Z,20.55
2023-05-24T08:05:23.298Z,20.55
2023-05-24T08:07:53.812Z,20.59
2023-05-24T08:10:22.648Z,20.50
2023-05-24T08:12:51.814Z,20.52
2023-05-24T08:15:20.596Z,20.33
2023-05-24T08:17:49.923Z,20.54
2023-05-24T08:20:19.046Z,20.60
2023-05-24T08:22:48.699Z,20.76
2023-05-24T08:25:19.322Z,20.98
2023-05-24T08:27:48.092Z,20.77
2023-05-24T08:30:16.824Z,20.66
2023-05-24T08:32:45.641Z,20.78
2023-05-24T08:37:46.317Z,21.06
2023-05-24T08:40:15.126Z,21.04
2023-05-24T08:42:46.880Z,21.07
2023-05-24T08:45:16.780Z,21.26
2023-05-24T08:47:46.384Z,21.48
2023-05-24T08:50:15.103Z,21.47
2023-05-24T08:52:47.752Z,21.26
2023-05-24T08:55:16.941Z,21.23
2023-05-24T08:57:47.576Z,21.52
2023-05-24T09:00:17.381Z,21.65
2023-05-24T09:02:47.443Z,21.47
2023-05-24T09:05:17.462Z,21.50
2023-05-24T09:07:47.326Z,21.48
2023-05-24T09:10:17.034Z,21.47
2023-05-24T09:12:51.766Z,21.81
2023-05-24T09:15:20.714Z,22.05
2023-05-24T09:17:49.328Z,22.26
2023-05-24T09:20:18.125Z,22.34
2023-05-24T09:22:49.244Z,22.39
2023-05-24T09:25:20.560Z,22.43
2023-05-24T09:27:54.475Z,22.42
2023-05-24T09:30:23.663Z,22.66
2023-05-24T09:33:00.311Z,22.43
2023-05-24T09:35:29.661Z,22.61
2023-05-24T09:38:00.156Z,22.87
2023-05-24T09:40:29.980Z,22.52
2023-05-24T09:43:09.906Z,22.73
2023-05-24T09:45:47.183Z,22.74
2023-05-24T09:48:17.490Z,22.82
2023-05-24T09:50:47.787Z,22.72
2023-05-24T09:53:19.520Z,22.75
2023-05-24T09:55:49.075Z,22.83
2023-05-24T09:58:19.538Z,22.93
2023-05-24T10:00:49.209Z,23.16
2023-05-24T10:03:18.188Z,23.04
2023-05-24T10:05:48.534Z,23.29
2023-05-24T10:08:18.594Z,23.46
2023-05-24T10:10:48.275Z,23.52
2023-05-24T10:13:19.081Z,23.76
2023-05-24T10:15:47.909Z,24.07
2023-05-24T10:18:16.627Z,24.12
2023-05-24T10:20:45.819Z,23.84
2023-05-24T10:23:21.347Z,23.89
2023-05-24T10:25:56.009Z,23.99
2023-05-24T10:28:27.298Z,24.04
2023-05-24T10:31:07.681Z,23.86
2023-05-24T10:33:39.097Z,23.61
2023-05-24T10:36:11.226Z,23.88
2023-05-24T10:38:41.882Z,23.52
2023-05-24T10:41:10.998Z,23.07
2023-05-24T10:43:41.451Z,23.30
2023-05-24T10:46:11.778Z,23.30
2023-05-24T10:48:41.402Z,23.39
2023-05-24T10:51:33.086Z,23.38
2023-05-24T10:54:14.084Z,23.53
2023-05-24T10:56:43.804Z,23.35
2023-05-24T10:59:24.658Z,23.80
2023-05-24T11:01:57.855Z,23.48
2023-05-24T11:04:27.628Z,23.57
2023-05-24T11:06:58.370Z,23.44
2023-05-24T11:09:28.150Z,23.15
2023-05-24T11:11:59.085Z,22.90
2023-05-24T11:14:32.316Z,22.67
2023-05-24T11:17:02.322Z,22.31
2023-05-24T11:19:34.435Z,22.39
2023-05-24T11:22:05.019Z,22.30
2023-05-24T11:24:34.243Z,22.24
2023-05-24T11:27:03.991Z,22.17
2023-05-24T11:29:36.053Z,22.12
2023-05-24T11:32:08.099Z,22.18
2023-05-24T11:34:36.963Z,22.25
2023-05-24T11:37:06.522Z,22.16
2023-05-24T11:39:36.832Z,22.03
2023-05-24T11:42:06.711Z,22.14
2023-05-24T11:44:38.940Z,22.08
2023-05-24T11:47:09.072Z,22.04
2023-05-24T11:49:37.836Z,22.12
2023-05-24T11:52:07.568Z,22.25
2023-05-24T11:54:37.569Z,22.24
2023-05-24T11:57:07.110Z,22.20
2023-05-24T11:59:38.226Z,22.28
2023-05-24T12:02:09.134Z,22.36
2023-05-24T12:04:37.896Z,22.54
2023-05-24T12:07:12.101Z,22.44
2023-05-24T12:09:41.036Z,22.43
2023-05-24T12:12:10.027Z,22.41
2023-05-24T12:14:40.340Z,22.44
2023-05-24T12:17:17.484Z,22.47
2023-05-24T12:19:46.110Z,22.61
2023-05-24T12:22:14.874Z,22.61
2023-05-24T12:24:44.098Z,22.40
2023-05-24T12:27:13.119Z,22.35
2023-05-24T12:29:43.619Z,22.30
2023-05-24T12:32:14.875Z,22.24
2023-05-24T12:34:45.334Z,22.23
2023-05-24T12:37:14.378Z,22.22
2023-05-24T12:39:44.466Z,22.15
2023-05-24T12:42:14.001Z,22.06
2023-05-24T12:44:45.422Z,22.11
2023-05-24T12:47:14.238Z,22.04
2023-05-24T12:49:45.908Z,22.04
2023-05-24T12:52:14.810Z,22.14
2023-05-24T12:54:43.584Z,22.22
2023-05-24T12:57:12.250Z,22.10
2023-05-24T12:59:41.070Z,22.16
2023-05-24T13:02:11.301Z,22.06
2023-05-24T13:04:39.934Z,22.10
2023-05-24T13:07:08.635Z,22.11
2023-05-24T13:09:37.458Z,22.16
2023-05-24T13:12:08.982Z,22.14
2023-05-24T13:14:38.169Z,22.17
2023-05-24T13:17:07.860Z,22.18
2023-05-24T13:19:38.081Z,22.10
2023-05-24T13:22:07.024Z,22.43
2023-05-24T13:24:35.704Z,22.39
2023-05-24T13:27:05.144Z,22.21
2023-05-24T13:29:42.405Z,22.28
2023-05-24T13:32:14.357Z,22.03
2023-05-24T13:34:45.290Z,21.92
2023-05-24T13:37:13.999Z,21.80
2023-05-24T13:39:42.707Z,21.71
2023-05-24T13:42:11.989Z,21.77
2023-05-24T13:44:40.697Z,21.84
2023-05-24T13:47:10.009Z,21.92
2023-05-24T13:49:39.287Z,22.01
2023-05-24T13:52:09.405Z,22.08
2023-05-24T13:54:38.586Z,22.02
2023-05-24T13:57:07.342Z,22.02
2023-05-24T13:59:36.039Z,22.08
2023-05-24T14:02:04.850Z,22.39
2023-05-24T14:04:33.529Z,22.49
2023-05-24T14:07:02.247Z,22.58
2023-05-24T14:09:32.419Z,22.90
2023-05-24T14:12:02.501Z,22.71
2023-05-24T14:17:02.628Z,22.62
2023-05-24T14:19:31.295Z,22.60
2023-05-24T14:22:00.155Z,22.60
2023-05-24T14:24:28.809Z,22.64
2023-05-24T14:26:59.111Z,22.72
2023-05-24T14:29:27.793Z,22.69
2023-05-24T14:31:56.475Z,22.81
2023-05-24T14:34:25.272Z,22.97
2023-05-24T14:36:56.032Z,22.82
2023-05-24T14:39:24.681Z,22.78
2023-05-24T14:41:53.187Z,22.96
2023-05-24T14:44:23.330Z,22.78
2023-05-24T14:46:55.291Z,22.64
2023-05-24T14:49:24.430Z,22.51
2023-05-24T14:51:53.099Z,22.49
2023-05-24T14:54:21.745Z,22.45
2023-05-24T14:56:50.426Z,22.36
2023-05-24T14:59:19.084Z,22.28
2023-05-24T15:01:49.363Z,22.25
2023-05-24T15:04:18.195Z,22.23
2023-05-24T15:06:46.747Z,22.28
2023-05-24T15:09:15.387Z,22.11
2023-05-24T15:11:44.103Z,22.17
2023-05-24T15:14:12.786Z,22.12
2023-05-24T15:16:41.412Z,22.10
2023-05-24T15:19:13.447Z,22.10
2023-05-24T15:21:42.203Z,22.05
2023-05-24T15:24:10.868Z,22.04
2023-05-24T15:26:39.793Z,22.31
2023-05-24T15:29:08.346Z,22.24
2023-05-24T15:31:37.086Z,22.19
2023-05-24T15:34:06.695Z,22.23
2023-05-24T15:36:36.777Z,22.12
2023-05-24T15:39:06.128Z,22.12
2023-05-24T15:41:34.932Z,22.39
2023-05-24T15:44:08.930Z,22.54
2023-05-24T15:46:38.167Z,22.69
2023-05-24T15:49:06.830Z,22.81
2023-05-24T15:54:08.435Z,23.11
2023-05-24T15:56:37.091Z,23.22
2023-05-24T15:59:05.730Z,23.41
2023-05-24T16:01:34.469Z,23.56
2023-05-24T16:04:03.289Z,23.79
2023-05-24T16:06:31.972Z,23.82
2023-05-24T16:09:02.189Z,23.90
2023-05-24T16:11:31.111Z,23.79
2023-05-24T16:13:59.809Z,23.72
2023-05-24T16:16:29.279Z,23.74
2023-05-24T16:18:57.941Z,23.51
2023-05-24T16:21:28.488Z,23.20
2023-05-24T16:23:59.398Z,22.60
2023-05-24T16:26:31.486Z,22.01
2023-05-24T16:29:02.027Z,21.80
2023-05-24T16:31:31.694Z,21.84
2023-05-24T16:34:01.134Z,21.72
2023-05-24T16:36:30.062Z,21.69
2023-05-24T16:38:58.672Z,21.75
2023-05-24T16:41:29.691Z,21.64
2023-05-24T16:43:59.938Z,21.89
2023-05-24T16:46:28.567Z,21.92
2023-05-24T16:48:57.237Z,21.99
2023-05-24T16:51:26.155Z,22.07
2023-05-24T16:53:54.792Z,22.02
2023-05-24T16:56:23.940Z,21.97
2023-05-24T16:58:52.974Z,21.97
2023-05-24T17:01:24.180Z,21.79
2023-05-24T17:03:52.980Z,21.66
2023-05-24T17:06:21.640Z,21.49
2023-05-24T17:08:50.319Z,21.50
2023-05-24T17:11:20.072Z,21.57
2023-05-24T17:13:48.712Z,21.53
2023-05-24T17:16:17.292Z,21.67
2023-05-24T17:18:47.520Z,21.82
2023-05-24T17:21:16.094Z,21.74
2023-05-24T17:23:44.641Z,21.58
2023-05-24T17:26:15.052Z,21.45
2023-05-24T17:28:46.384Z,21.40
2023-05-24T17:31:16.521Z,21.25
2023-05-24T17:33:46.718Z,21.13
2023-05-24T17:36:15.289Z,21.02
2023-05-24T17:38:43.937Z,20.95
2023-05-24T17:41:12.674Z,20.73
2023-05-24T17:43:42.159Z,20.65
2023-05-24T17:46:11.219Z,20.55
2023-05-24T17:48:41.392Z,20.50
2023-05-24T17:51:11.908Z,20.51
2023-05-24T17:53:43.485Z,20.63
2023-05-24T17:56:12.127Z,20.67
2023-05-24T17:58:40.980Z,20.71
2023-05-24T18:01:12.983Z,20.62
2023-05-24T18:03:42.835Z,20.63
2023-05-24T18:06:12.933Z,20.61
2023-05-24T18:08:44.387Z,20.44
2023-05-24T18:11:13.781Z,20.48
2023-05-24T18:13:43.947Z,20.40
2023-05-24T18:16:13.200Z,20.41
2023-05-24T18:18:44.045Z,20.40
2023-05-24T18:21:14.418Z,20.36
2023-05-24T18:23:43.524Z,20.33
2023-05-24T18:26:13.324Z,20.26
2023-05-24T18:28:42.731Z,20.16
2023-05-24T18:31:11.744Z,20.10
2023-05-24T18:33:40.584Z,19.98
2023-05-24T18:36:09.636Z,19.85
2023-05-24T18:38:40.803Z,19.71
2023-05-24T18:41:12.133Z,19.65
2023-05-24T18:43:43.151Z,19.37
2023-05-24T18:46:15.113Z,19.12
2023-05-24T18:48:44.338Z,19.17
2023-05-24T18:51:13.062Z,19.16
2023-05-24T18:53:43.226Z,19.08
2023-05-24T18:56:12.002Z,19.02
2023-05-24T18:58:41.580Z,18.84
2023-05-24T19:01:10.386Z,18.75
2023-05-24T19:03:39.400Z,18.37
2023-05-24T19:06:08.182Z,18.29
2023-05-24T19:08:36.734Z,18.31
2023-05-24T19:11:06.841Z,18.28
2023-05-24T19:13:35.394Z,18.04
2023-05-24T19:16:03.999Z,18.00
2023-05-24T19:18:32.790Z,17.87
2023-05-24T19:21:01.448Z,17.71
2023-05-24T19:23:30.097Z,17.01
2023-05-24T19:25:58.594Z,16.91
2023-05-24T19:28:28.480Z,17.09
2023-05-24T19:30:57.075Z,16.90
2023-05-24T19:33:25.590Z,16.97
2023-05-24T19:35:54.235Z,16.54
2023-05-24T19:38:22.729Z,16.63
2023-05-24T19:40:51.291Z,16.73
2023-05-24T19:43:19.889Z,16.61
2023-05-24T19:45:52.025Z,16.49
2023-05-24T19:48:20.740Z,14.98
2023-05-24T19:50:49.330Z,15.17
2023-05-24T19:53:17.969Z,15.50
2023-05-24T19:55:46.593Z,15.66
2023-05-24T19:58:15.291Z,15.82
2023-05-24T20:00:43.816Z,15.87
2023-05-24T20:03:14.217Z,15.94
2023-05-24T20:05:42.996Z,15.93
2023-05-24T20:08:13.480Z,15.99
2023-05-24T20:10:42.100Z,16.01
2023-05-24T20:13:10.629Z,15.93
2023-05-24T20:15:39.032Z,15.89
2023-05-24T20:18:07.888Z,15.82
2023-05-24T20:20:38.179Z,15.80
2023-05-24T20:23:06.992Z,15.60
2023-05-24T20:25:35.532Z,15.60
2023-05-24T20:28:04.134Z,15.50
2023-05-24T20:30:33.818Z,15.46
2023-05-24T20:33:02.579Z,15.34
2023-05-24T20:35:31.556Z,15.21
2023-05-24T20:38:01.676Z,15.21
2023-05-24T20:40:30.393Z,14.94
2023-05-24T20:42:58.953Z,14.62
2023-05-24T20:45:27.659Z,14.72
2023-05-24T20:47:56.614Z,14.48
2023-05-24T20:50:25.210Z,14.63
2023-05-24T20:52:53.819Z,14.62
2023-05-24T20:55:25.880Z,14.62
2023-05-24T20:57:55.467Z,14.61
2023-05-24T21:00:24.076Z,13.64
2023-05-24T21:02:52.800Z,13.94
2023-05-24T21:05:21.409Z,14.08
2023-05-24T21:07:50.108Z,14.14
2023-05-24T21:10:19.697Z,14.17
2023-05-24T21:12:50.451Z,14.18
2023-05-24T21:15:19.095Z,13.90
2023-05-24T21:17:47.631Z,13.90
2023-05-24T21:20:16.469Z,13.87
2023-05-24T21:22:46.332Z,14.01
2023-05-24T21:25:14.870Z,13.98
2023-05-24T21:27:43.398Z,14.00
2023-05-24T21:30:14.875Z,14.00
2023-05-24T21:32:43.460Z,13.63
2023-05-24T21:35:12.090Z,13.63
2023-05-24T21:37:40.710Z,13.30
2023-05-24T21:40:10.169Z,13.40
2023-05-24T21:42:38.760Z,13.34
2023-05-24T21:45:08.505Z,13.15
2023-05-24T21:47:38.624Z,12.61
2023-05-24T21:50:08.349Z,12.45
2023-05-24T21:52:37.008Z,11.87
2023-05-24T21:55:06.302Z,11.87
2023-05-24T21:57:34.890Z,12.02
2023-05-24T22:00:04.309Z,11.93
2023-05-24T22:02:33.756Z,11.84
2023-05-24T22:05:05.481Z,11.86
2023-05-24T22:07:34.091Z,12.07
2023-05-24T22:10:02.561Z,12.35
2023-05-24T22:12:31.232Z,12.55
2023-05-24T22:15:01.674Z,12.66
2023-05-24T22:17:32.884Z,12.25
2023-05-24T22:20:02.511Z,11.94
2023-05-24T22:22:32.406Z,11.25
2023-05-24T22:25:02.239Z,11.00
2023-05-24T22:27:30.872Z,10.87
2023-05-24T22:29:59.459Z,10.72
2023-05-24T22:32:27.995Z,10.58
2023-05-24T22:34:56.585Z,11.07
2023-05-24T22:37:25.062Z,11.36
2023-05-24T22:39:55.016Z,11.52
2023-05-24T22:42:23.594Z,11.67
2023-05-24T22:44:52.110Z,11.72
2023-05-24T22:47:23.158Z,11.79
2023-05-24T22:49:54.180Z,11.72
2023-05-24T22:52:24.622Z,11.38
2023-05-24T22:54:54.613Z,11.23
2023-05-24T22:57:23.317Z,11.07
2023-05-24T22:59:51.764Z,10.90
2023-05-24T23:02:20.285Z,11.01
2023-05-24T23:04:48.787Z,11.13
2023-05-24T23:07:17.345Z,10.36
2023-05-24T23:09:45.893Z,10.58
2023-05-24T23:12:15.839Z,10.66
2023-05-24T23:14:46.728Z,10.80
2023-05-24T23:17:15.172Z,10.94
2023-05-24T23:19:46.703Z,10.66
2023-05-24T23:22:18.648Z,10.40
2023-05-24T23:24:47.735Z,10.31
2023-05-24T23:27:17.778Z,10.21
2023-05-24T23:29:46.495Z,9.64
2023-05-24T23:32:15.091Z,9.19
2023-05-24T23:34:43.577Z,8.76
2023-05-24T23:37:12.189Z,8.53
2023-05-24T23:39:40.906Z,8.44
2023-05-24T23:42:09.556Z,8.33
2023-05-24T23:44:39.573Z,8.46
2023-05-24T23:47:08.370Z,8.43
2023-05-24T23:49:36.994Z,8.87
2023-05-24T23:52:06.065Z,9.07
2023-05-24T23:54:34.718Z,9.43
2023-05-24T23:57:04.141Z,9.42
2023-05-24T23:59:32.755Z,9.64
